Time;durP1;ratioP1;P1;durP2;ratioP2;P2;SDS_P1;SDS_P2;PMS_P1;PMS_P2;Temp;Humidity;BMP_temperature;BMP_pressure;BME280_temperature;BME280_humidity;BME280_pressure;Samples;Min_cycle;Max_cycle;Signal;HPM_P1;HPM_P2
2022/11/30 00:02:29;;;;;;;32.35;11.98;;;;;;;9.82;77.62;100767.47;10404967;28;20118;-62
2022/11/30 00:07:31;;;;;;;35.50;13.55;;;;;;;9.80;77.77;100769.47;10402802;28;20511;-62
2022/11/30 00:12:33;;;;;;;39.35;15.18;;;;;;;9.79;77.59;100758.88;10409324;28;20050;-61
2022/11/30 00:17:34;;;;;;;43.28;13.80;;;;;;;9.79;77.79;100769.63;10411335;28;20072;-63
2022/11/30 00:22:35;;;;;;;34.03;11.93;;;;;;;9.80;77.70;100766.78;10422018;28;20077;-62
2022/11/30 00:27:37;;;;;;;32.15;12.10;;;;;;;9.80;77.77;100765.94;10415691;28;20156;-62
2022/11/30 00:32:38;;;;;;;31.15;13.20;;;;;;;9.65;78.37;100760.31;10414463;28;20045;-61
2022/11/30 00:37:39;;;;;;;39.78;13.60;;;;;;;9.69;78.19;100767.03;10411390;28;20179;-63
2022/11/30 00:42:41;;;;;;;32.95;13.07;;;;;;;9.79;78.08;100773.13;10411193;28;20076;-62
2022/11/30 00:47:42;;;;;;;33.22;14.13;;;;;;;9.84;77.88;100770.81;10395039;28;20049;-61
2022/11/30 00:52:44;;;;;;;47.78;13.52;;;;;;;9.82;77.87;100762.09;10408607;28;20129;-63
2022/11/30 00:57:45;;;;;;;35.97;12.55;;;;;;;9.71;78.34;100762.34;10418861;28;20099;-62
2022/11/30 01:02:46;;;;;;;43.58;11.65;;;;;;;9.64;78.42;100762.16;10415198;28;20562;-62
2022/11/30 01:07:48;;;;;;;29.33;12.57;;;;;;;9.74;78.13;100756.69;10418541;28;20045;-62
2022/11/30 01:12:49;;;;;;;35.42;12.38;;;;;;;9.82;78.08;100750.50;10416556;28;20758;-62
2022/11/30 01:17:51;;;;;;;42.85;12.52;;;;;;;9.86;77.88;100759.94;10421096;28;20124;-62
2022/11/30 01:22:54;;;;;;;31.70;12.40;;;;;;;9.90;77.94;100761.28;10424606;28;20092;-62
2022/11/30 01:27:55;;;;;;;36.90;13.88;;;;;;;9.90;78.01;100763.97;10406164;28;20084;-64
2022/11/30 01:33:04;;;;;;;38.15;13.38;;;;;;;9.92;77.56;100761.97;10414490;28;20100;-62
2022/11/30 01:38:05;;;;;;;40.03;14.32;;;;;;;9.96;77.68;100749.06;10411998;28;20084;-63
2022/11/30 01:43:10;;;;;;;45.28;14.25;;;;;;;9.98;77.71;100761.31;10424836;28;20084;-61
2022/11/30 01:48:12;;;;;;;32.40;14.00;;;;;;;9.99;77.70;100756.78;10413870;28;20072;-61
2022/11/30 01:53:13;;;;;;;41.10;13.85;;;;;;;9.98;77.85;100760.47;10410892;28;20181;-61
2022/11/30 01:58:21;;;;;;;33.45;14.25;;;;;;;9.97;77.68;100766.84;10409605;28;20114;-63
2022/11/30 02:03:37;;;;;;;32.55;13.70;;;;;;;9.99;77.47;100768.38;10415169;28;20609;-63
2022/11/30 02:08:39;;;;;;;31.95;13.00;;;;;;;9.99;77.63;100764.84;10420461;28;20114;-61
2022/11/30 02:13:51;;;;;;;30.67;13.60;;;;;;;9.93;77.81;100769.88;10422633;28;20053;-62
2022/11/30 02:19:13;;;;;;;31.85;13.57;;;;;;;9.91;77.62;100762.94;10423922;28;20089;-63
2022/11/30 02:24:26;;;;;;;29.17;12.23;;;;;;;9.95;77.57;100775.06;10416744;28;20133;-62
2022/11/30 02:29:32;;;;;;;36.45;12.85;;;;;;;9.92;77.86;100770.84;10424610;28;20065;-62
2022/11/30 02:34:35;;;;;;;36.72;15.02;;;;;;;9.89;77.96;100770.34;10417698;28;20169;-62
2022/11/30 02:39:37;;;;;;;42.97;14.88;;;;;;;9.86;78.04;100768.81;10414011;28;20057;-60
2022/11/30 02:44:41;;;;;;;34.88;13.48;;;;;;;9.85;77.99;100771.66;10418155;28;20048;-62
2022/11/30 02:49:55;;;;;;;40.38;14.68;;;;;;;9.83;78.00;100768.28;10413464;28;20037;-61
2022/11/30 02:54:59;;;;;;;42.85;13.82;;;;;;;9.80;78.15;100772.16;10416621;28;20081;-62
2022/11/30 03:00:06;;;;;;;43.70;14.77;;;;;;;9.76;78.16;100769.97;10420569;28;20045;-61
2022/11/30 03:05:08;;;;;;;38.70;14.15;;;;;;;9.76;78.22;100775.31;10428505;28;20057;-65
2022/11/30 03:10:10;;;;;;;35.33;13.75;;;;;;;9.71;78.11;100773.94;10433292;28;20049;-61
2022/11/30 03:15:11;;;;;;;32.45;12.70;;;;;;;9.72;78.17;100790.91;10438254;28;20056;-62
2022/11/30 03:20:12;;;;;;;37.83;13.95;;;;;;;9.65;78.37;100785.31;10423711;28;20049;-60
2022/11/30 03:25:14;;;;;;;44.45;12.70;;;;;;;9.69;78.18;100793.91;10402611;28;20050;-61
2022/11/30 03:30:16;;;;;;;40.35;14.38;;;;;;;9.71;78.00;100798.09;10429202;28;20112;-61
2022/11/30 03:35:18;;;;;;;33.92;13.25;;;;;;;9.72;78.22;100794.41;10421710;28;20053;-62
2022/11/30 03:40:19;;;;;;;46.38;14.55;;;;;;;9.72;78.22;100797.09;10428989;28;20520;-63
2022/11/30 03:45:20;;;;;;;41.63;16.50;;;;;;;9.76;78.12;100786.91;10435016;28;20053;-62
2022/11/30 03:50:22;;;;;;;43.22;14.65;;;;;;;9.69;78.27;100794.72;10435578;28;20053;-62
2022/11/30 03:55:23;;;;;;;49.25;15.55;;;;;;;9.61;78.80;100794.69;10431552;28;20041;-61
2022/11/30 04:00:25;;;;;;;44.63;15.50;;;;;;;9.55;78.86;100789.13;10429835;28;20416;-62
2022/11/30 04:05:27;;;;;;;41.78;13.98;;;;;;;9.57;78.79;100787.94;10415736;28;20069;-64
2022/11/30 04:10:29;;;;;;;42.33;14.10;;;;;;;9.64;78.40;100793.53;10429593;28;20065;-64
2022/11/30 04:15:30;;;;;;;46.60;15.13;;;;;;;9.70;78.32;100792.91;10418137;28;20504;-63
2022/11/30 04:20:32;;;;;;;38.58;14.10;;;;;;;9.73;78.15;100782.69;10426096;28;22082;-64
2022/11/30 04:25:40;;;;;;;44.85;14.40;;;;;;;9.75;78.25;100798.63;10422499;28;20072;-64
2022/11/30 04:30:42;;;;;;;44.45;15.50;;;;;;;9.75;78.32;100798.63;10427019;28;20481;-64
2022/11/30 04:35:49;;;;;;;34.53;14.27;;;;;;;9.80;78.26;100795.47;10416345;28;20069;-62
2022/11/30 04:40:51;;;;;;;41.67;14.35;;;;;;;9.81;78.33;100792.59;10421603;28;20424;-63
2022/11/30 04:45:52;;;;;;;48.63;15.95;;;;;;;9.78;78.02;100790.25;10428003;28;20045;-62
2022/11/30 04:51:00;;;;;;;46.92;14.93;;;;;;;9.71;78.39;100799.94;10402905;28;20045;-62
2022/11/30 04:56:09;;;;;;;41.95;14.43;;;;;;;9.74;78.29;100794.28;10413257;28;20065;-64
2022/11/30 05:01:10;;;;;;;53.58;17.33;;;;;;;9.79;78.18;100799.97;10411819;28;20077;-63
2022/11/30 05:06:12;;;;;;;53.85;15.45;;;;;;;9.84;78.12;100796.84;10425736;28;20045;-63
2022/11/30 05:11:13;;;;;;;48.60;14.75;;;;;;;9.85;78.25;100796.69;10421688;28;20053;-61
2022/11/30 05:16:14;;;;;;;40.35;15.10;;;;;;;9.90;78.33;100799.72;10408241;28;20053;-62
2022/11/30 05:21:16;;;;;;;53.58;16.52;;;;;;;9.91;78.13;100804.09;10420566;28;20073;-63
2022/11/30 05:26:18;;;;;;;55.33;14.73;;;;;;;9.94;78.27;100800.25;10410898;28;20077;-63
2022/11/30 05:31:19;;;;;;;41.80;14.15;;;;;;;9.96;78.35;100808.97;10422994;28;20064;-63
2022/11/30 05:36:21;;;;;;;49.25;14.80;;;;;;;9.97;78.09;100810.63;10400059;28;20079;-63
2022/11/30 05:41:22;;;;;;;53.42;15.65;;;;;;;9.98;78.21;100817.72;10410429;28;20054;-63
2022/11/30 05:46:24;;;;;;;49.88;14.48;;;;;;;10.00;78.21;100818.41;10426646;28;20046;-61
2022/11/30 05:51:25;;;;;;;46.35;15.90;;;;;;;9.97;78.20;100829.44;10431219;28;20056;-61
2022/11/30 05:56:27;;;;;;;57.20;17.13;;;;;;;9.92;78.13;100826.41;10426576;28;20060;-62
2022/11/30 06:01:28;;;;;;;56.35;15.35;;;;;;;9.95;78.15;100822.56;10431496;28;20419;-62
2022/11/30 06:06:30;;;;;;;57.42;16.00;;;;;;;9.95;78.38;100830.63;10424297;28;20046;-62
2022/11/30 06:11:31;;;;;;;48.50;15.18;;;;;;;9.98;78.02;100828.47;10430828;28;20504;-64
2022/11/30 06:16:33;;;;;;;45.55;15.02;;;;;;;10.00;78.04;100825.63;10418902;28;20057;-63
2022/11/30 06:21:34;;;;;;;52.92;16.15;;;;;;;10.01;78.06;100830.84;10427773;28;20099;-61
2022/11/30 06:26:36;;;;;;;46.20;14.57;;;;;;;10.03;78.05;100828.81;10409599;28;20127;-63
2022/11/30 06:31:37;;;;;;;49.88;14.80;;;;;;;10.02;78.07;100829.81;10414762;28;20088;-64
2022/11/30 06:36:38;;;;;;;46.90;16.02;;;;;;;9.93;78.52;100844.19;10428339;28;20163;-62
2022/11/30 06:41:40;;;;;;;59.28;16.85;;;;;;;10.02;78.28;100839.72;10427253;28;20563;-63
2022/11/30 06:46:41;;;;;;;59.13;17.10;;;;;;;10.06;78.11;100846.47;10432279;28;20090;-62
2022/11/30 06:51:43;;;;;;;52.75;14.50;;;;;;;10.05;78.10;100847.44;10424214;28;20076;-63
2022/11/30 06:56:44;;;;;;;54.85;16.33;;;;;;;10.05;78.05;100851.00;10412363;28;20492;-61
2022/11/30 07:01:45;;;;;;;56.35;16.67;;;;;;;10.07;78.21;100848.13;10411466;28;20088;-70
2022/11/30 07:06:47;;;;;;;53.47;15.80;;;;;;;10.13;78.09;100842.97;10406847;28;20140;-69
2022/11/30 07:11:48;;;;;;;54.03;16.90;;;;;;;10.17;78.05;100854.25;10407688;28;20469;-60
2022/11/30 07:16:50;;;;;;;59.30;16.00;;;;;;;10.18;78.04;100845.16;10406963;28;20044;-59
2022/11/30 07:21:52;;;;;;;55.85;16.55;;;;;;;10.19;78.21;100865.66;10420908;28;20125;-60
2022/11/30 07:26:53;;;;;;;59.78;16.50;;;;;;;10.24;78.25;100859.81;10416384;28;20042;-61
2022/11/30 07:31:55;;;;;;;51.58;15.32;;;;;;;10.29;78.21;100852.94;10417591;28;20508;-62
2022/11/30 07:36:56;;;;;;;50.70;15.77;;;;;;;10.31;78.23;100858.19;10429751;28;20136;-63
2022/11/30 07:41:57;;;;;;;59.70;18.20;;;;;;;10.34;78.33;100860.53;10418510;28;20087;-61
2022/11/30 07:46:59;;;;;;;65.82;17.75;;;;;;;10.38;78.22;100872.66;10422396;28;20057;-62
2022/11/30 07:52:03;;;;;;;41.83;16.60;;;;;;;10.41;78.31;100864.28;10418165;28;20120;-63
2022/11/30 07:57:05;;;;;;;50.63;17.90;;;;;;;10.46;78.27;100872.69;10422727;28;20144;-62
2022/11/30 08:02:09;;;;;;;50.00;16.23;;;;;;;10.53;78.23;100875.56;10416117;28;20053;-62
2022/11/30 08:07:10;;;;;;;57.78;18.35;;;;;;;10.57;78.44;100876.94;10411588;28;20050;-62
2022/11/30 08:12:12;;;;;;;47.35;16.67;;;;;;;10.58;78.57;100880.47;10409080;28;20073;-61
2022/11/30 08:17:13;;;;;;;49.13;16.25;;;;;;;10.59;78.58;100876.78;10422294;28;20055;-62
2022/11/30 08:22:15;;;;;;;54.85;18.42;;;;;;;10.60;79.04;100881.97;10401823;28;20065;-62
2022/11/30 08:27:16;;;;;;;52.40;17.65;;;;;;;10.64;78.88;100877.09;10407113;28;20052;-62
2022/11/30 08:32:17;;;;;;;49.83;16.42;;;;;;;10.70;78.92;100881.81;10409955;28;20053;-59
2022/11/30 08:37:19;;;;;;;61.47;23.02;;;;;;;10.76;78.55;100889.22;10417473;28;20088;-59
2022/11/30 08:42:20;;;;;;;56.55;18.70;;;;;;;10.84;78.58;100883.03;10418550;28;20045;-60
2022/11/30 08:47:22;;;;;;;50.75;18.50;;;;;;;10.84;78.16;100889.28;10422532;28;20164;-60
2022/11/30 08:52:23;;;;;;;59.92;18.63;;;;;;;10.89;77.97;100886.09;10423398;28;20057;-61
2022/11/30 08:57:25;;;;;;;55.13;17.70;;;;;;;10.89;77.80;100896.84;10423983;28;20049;-58
2022/11/30 09:02:27;;;;;;;61.40;20.60;;;;;;;10.90;77.90;100898.56;10410527;28;20081;-57
2022/11/30 09:07:28;;;;;;;58.33;20.30;;;;;;;10.89;78.21;100897.69;10395249;28;20113;-59
2022/11/30 09:12:33;;;;;;;51.60;17.50;;;;;;;10.96;77.95;100902.41;10425168;28;20053;-57
2022/11/30 09:17:35;;;;;;;53.95;19.70;;;;;;;10.96;78.44;100903.25;10414473;28;20107;-58
2022/11/30 09:22:36;;;;;;;58.65;18.13;;;;;;;11.01;77.91;100902.75;10419125;28;20580;-60
2022/11/30 09:27:38;;;;;;;57.20;23.13;;;;;;;11.07;78.26;100905.63;10414570;28;20041;-58
2022/11/30 09:32:39;;;;;;;56.25;22.58;;;;;;;11.11;77.90;100906.97;10423066;28;20048;-59
2022/11/30 09:37:41;;;;;;;55.75;18.08;;;;;;;11.21;77.85;100914.88;10412740;28;20077;-60
2022/11/30 09:42:53;;;;;;;52.80;17.73;;;;;;;11.27;78.20;100905.31;10414572;28;20419;-60
2022/11/30 09:48:23;;;;;;;50.70;18.48;;;;;;;11.30;78.34;100913.06;10416815;28;20594;-60
2022/11/30 09:53:36;;;;;;;52.78;16.48;;;;;;;11.43;77.75;100909.88;10414551;28;20124;-60
2022/11/30 09:58:46;;;;;;;53.28;17.00;;;;;;;11.44;77.89;100916.94;10416429;28;20050;-64
2022/11/30 10:03:48;;;;;;;51.97;17.55;;;;;;;11.46;77.60;100918.44;10409774;28;20046;-62
2022/11/30 10:09:05;;;;;;;52.78;17.98;;;;;;;11.49;77.95;100917.25;10408165;28;20080;-62
2022/11/30 10:14:35;;;;;;;55.55;20.25;;;;;;;11.49;77.99;100912.75;10411824;28;20100;-62
2022/11/30 10:20:01;;;;;;;49.70;16.63;;;;;;;11.53;77.69;100910.53;10411943;28;20045;-63
2022/11/30 10:25:11;;;;;;;48.85;17.25;;;;;;;11.57;77.73;100906.53;10411007;28;20137;-62
2022/11/30 10:30:16;;;;;;;55.17;17.10;;;;;;;11.49;77.72;100911.88;10408657;28;20084;-62
2022/11/30 10:35:31;;;;;;;47.88;17.63;;;;;;;11.47;77.70;100903.13;10407551;28;20053;-62
2022/11/30 10:41:00;;;;;;;44.65;17.52;;;;;;;11.49;77.65;100901.13;10407164;28;20132;-62
2022/11/30 10:46:01;;;;;;;46.85;17.10;;;;;;;11.57;78.08;100897.56;10413355;28;20080;-63
2022/11/30 10:51:03;;;;;;;39.78;15.15;;;;;;;11.68;77.62;100900.78;10399891;28;20140;-63
2022/11/30 10:56:09;;;;;;;40.58;15.20;;;;;;;11.74;77.46;100901.94;10414010;28;20088;-64
2022/11/30 11:01:29;;;;;;;30.10;11.77;;;;;;;11.68;77.46;100897.25;10410330;28;20567;-64
2022/11/30 11:06:32;;;;;;;32.40;13.10;;;;;;;11.82;77.23;100898.41;10405506;28;20061;-64
2022/11/30 11:11:38;;;;;;;32.85;12.70;;;;;;;11.89;77.13;100885.97;10407977;28;20037;-64
2022/11/30 11:17:07;;;;;;;23.52;9.95;;;;;;;11.89;77.21;100888.69;10407597;28;20077;-64
2022/11/30 11:22:27;;;;;;;20.15;9.68;;;;;;;11.87;76.82;100883.41;10408398;28;20125;-63
2022/11/30 11:27:32;;;;;;;20.05;8.50;;;;;;;11.90;76.95;100882.25;10406500;28;20064;-63
2022/11/30 11:32:34;;;;;;;22.70;8.60;;;;;;;11.96;76.73;100886.13;10412592;28;20081;-64
2022/11/30 11:37:39;;;;;;;21.75;9.85;;;;;;;11.88;77.04;100889.63;10412280;28;20076;-64
2022/11/30 11:42:50;;;;;;;20.88;11.00;;;;;;;11.82;76.60;100883.06;10393411;28;20694;-63
2022/11/30 11:48:32;;;;;;;25.65;12.00;;;;;;;11.78;76.12;100892.50;10389108;28;20107;-63
2022/11/30 11:53:43;;;;;;;24.45;11.13;;;;;;;11.75;76.23;100890.19;10414045;28;20049;-64
2022/11/30 11:59:08;;;;;;;36.33;13.15;;;;;;;11.78;76.39;100887.13;10394317;28;20049;-65
2022/11/30 12:04:37;;;;;;;24.67;11.20;;;;;;;11.76;75.92;100875.69;10398164;28;20084;-63
2022/11/30 12:09:50;;;;;;;27.60;13.15;;;;;;;11.83;76.23;100881.25;10403397;28;20046;-63
2022/11/30 12:14:54;;;;;;;29.02;12.50;;;;;;;11.88;75.79;100884.25;10402110;28;20081;-63
2022/11/30 12:20:13;;;;;;;29.73;14.02;;;;;;;11.95;76.31;100882.59;10404993;28;20046;-64
2022/11/30 12:25:24;;;;;;;28.40;12.35;;;;;;;12.02;75.94;100882.75;10401827;28;20095;-64
2022/11/30 12:30:40;;;;;;;26.33;11.63;;;;;;;12.00;75.90;100890.97;10408019;28;20069;-63
2022/11/30 12:35:50;;;;;;;32.92;17.73;;;;;;;12.08;75.95;100876.66;10407204;28;20084;-63
2022/11/30 12:41:16;;;;;;;25.33;12.77;;;;;;;12.14;75.29;100881.34;10407713;28;20050;-64
2022/11/30 12:46:39;;;;;;;26.13;12.15;;;;;;;12.17;75.75;100877.50;10410381;28;20077;-65
2022/11/30 12:51:55;;;;;;;28.17;11.75;;;;;;;12.20;75.75;100886.03;10404746;28;20129;-63
2022/11/30 12:57:12;;;;;;;31.05;14.43;;;;;;;12.15;75.51;100885.75;10412647;28;20711;-63
2022/11/30 13:02:35;;;;;;;35.60;15.30;;;;;;;12.12;75.36;100888.75;10413014;28;20180;-64
2022/11/30 13:08:04;;;;;;;36.92;17.10;;;;;;;12.06;75.89;100894.84;10410048;28;20132;-64
2022/11/30 13:13:12;;;;;;;32.72;16.13;;;;;;;12.00;75.54;100892.84;10418886;28;20147;-63
2022/11/30 13:18:16;;;;;;;45.60;17.65;;;;;;;11.97;75.35;100885.97;10411957;28;20470;-63
2022/11/30 13:23:30;;;;;;;37.97;15.60;;;;;;;11.96;75.47;100884.25;10418871;28;20100;-62
2022/11/30 13:28:41;;;;;;;39.13;15.82;;;;;;;11.95;75.34;100889.81;10419452;28;20083;-64
2022/11/30 13:33:51;;;;;;;35.45;15.02;;;;;;;11.89;75.16;100888.69;10413566;28;20052;-63
2022/11/30 13:39:20;;;;;;;30.88;13.80;;;;;;;11.84;75.28;100886.44;10407292;28;20072;-63
2022/11/30 13:44:37;;;;;;;39.63;15.07;;;;;;;11.84;75.30;100881.06;10417430;28;20055;-62
2022/11/30 13:49:38;;;;;;;38.00;14.85;;;;;;;11.74;75.70;100880.41;10404273;28;20041;-62
2022/11/30 13:54:48;;;;;;;36.58;15.95;;;;;;;11.78;75.74;100884.44;10412441;28;20157;-62
2022/11/30 13:59:55;;;;;;;38.25;16.52;;;;;;;11.73;75.81;100886.81;10411447;28;20053;-62
2022/11/30 14:05:17;;;;;;;43.75;17.13;;;;;;;11.71;75.56;100889.66;10411132;28;20076;-62
2022/11/30 14:10:31;;;;;;;36.75;15.27;;;;;;;11.73;75.64;100883.25;10412740;28;20049;-62
2022/11/30 14:15:39;;;;;;;39.40;16.52;;;;;;;11.74;75.70;100893.03;10409004;28;20089;-62
2022/11/30 14:20:56;;;;;;;34.38;15.95;;;;;;;11.74;75.55;100895.72;10412079;28;20236;-62
2022/11/30 14:26:06;;;;;;;35.45;15.82;;;;;;;11.73;75.47;100894.03;10400926;28;20124;-62
2022/11/30 14:31:19;;;;;;;31.20;14.27;;;;;;;11.67;75.10;100909.00;10398478;28;20601;-62
2022/11/30 14:36:26;;;;;;;36.08;16.23;;;;;;;11.63;75.54;100908.53;10406134;28;20520;-63
2022/11/30 14:41:29;;;;;;;31.80;14.38;;;;;;;11.64;75.45;100912.06;10400590;28;20053;-63
2022/11/30 14:46:33;;;;;;;36.90;15.38;;;;;;;11.62;75.43;100908.69;10454405;28;20046;-62
2022/11/30 14:51:36;;;;;;;31.45;15.80;;;;;;;11.60;75.64;100910.72;10455450;28;20056;-61
2022/11/30 14:56:47;;;;;;;31.73;14.50;;;;;;;11.59;75.14;100909.88;10461723;28;20053;-61
2022/11/30 15:01:57;;;;;;;40.90;16.73;;;;;;;11.58;75.53;100904.66;10450418;28;20049;-63
2022/11/30 15:06:59;;;;;;;31.67;15.55;;;;;;;11.53;75.47;100905.16;10458334;28;20036;-59
2022/11/30 15:12:01;;;;;;;33.47;15.45;;;;;;;11.46;75.50;100914.94;10460510;28;20065;-60
2022/11/30 15:17:02;;;;;;;32.73;16.43;;;;;;;11.42;75.31;100909.03;10427742;28;1049351;-60
2022/11/30 15:22:03;;;;;;;28.85;14.27;;;;;;;11.41;75.62;100909.19;10456674;28;20362;-61
2022/11/30 15:27:12;;;;;;;30.23;14.93;;;;;;;11.35;75.83;100905.31;10458489;28;20032;-58
2022/11/30 15:32:16;;;;;;;27.35;13.73;;;;;;;11.31;75.64;100912.91;10414922;28;20137;-60
2022/11/30 15:37:18;;;;;;;30.02;14.32;;;;;;;11.21;75.57;100920.28;10411677;28;20202;-59
2022/11/30 15:42:28;;;;;;;32.20;14.32;;;;;;;11.12;75.80;100923.97;10404058;28;20460;-61
2022/11/30 15:47:37;;;;;;;29.98;15.90;;;;;;;11.04;75.71;100922.09;10412123;28;20349;-61
2022/11/30 15:52:43;;;;;;;32.28;15.32;;;;;;;10.93;76.14;100921.56;10411385;28;20069;-60
2022/11/30 15:58:00;;;;;;;30.92;16.15;;;;;;;10.95;76.27;100927.63;10402120;28;20050;-60
2022/11/30 16:03:09;;;;;;;29.42;14.05;;;;;;;10.98;76.27;100935.34;10410730;28;20049;-60
2022/11/30 16:08:16;;;;;;;32.70;15.50;;;;;;;10.91;76.39;100940.56;10416607;28;20084;-59
2022/11/30 16:13:21;;;;;;;26.02;14.63;;;;;;;10.87;76.49;100945.41;10413931;28;20049;-59
2022/11/30 16:18:25;;;;;;;21.85;12.35;;;;;;;10.77;77.00;100949.25;10405796;28;20082;-59
2022/11/30 16:23:27;;;;;;;20.90;12.18;;;;;;;10.74;76.62;100947.72;10410983;28;20091;-59
2022/11/30 16:28:29;;;;;;;23.77;13.13;;;;;;;10.70;76.53;100949.91;10408057;28;20053;-58
2022/11/30 16:33:32;;;;;;;22.75;12.82;;;;;;;10.75;76.51;100951.28;10409977;28;20348;-59
2022/11/30 16:38:33;;;;;;;21.90;13.32;;;;;;;10.65;76.73;100957.59;10404345;28;20045;-58
2022/11/30 16:43:38;;;;;;;22.27;12.35;;;;;;;10.61;76.64;100958.09;10403053;28;20484;-58
2022/11/30 16:48:40;;;;;;;22.80;12.18;;;;;;;10.52;77.11;100959.91;10412904;28;20603;-59
2022/11/30 16:53:43;;;;;;;16.15;10.02;;;;;;;10.53;77.18;100972.34;10414022;28;20121;-58
2022/11/30 16:58:45;;;;;;;23.15;13.65;;;;;;;10.53;76.89;100972.34;10409028;28;20568;-61
2022/11/30 17:03:49;;;;;;;17.42;10.43;;;;;;;10.51;76.66;100977.88;10409262;28;20100;-59
2022/11/30 17:08:51;;;;;;;21.65;11.35;;;;;;;10.44;77.27;100984.06;10400313;28;20053;-59
2022/11/30 17:13:52;;;;;;;18.75;11.40;;;;;;;10.35;77.43;100993.91;10406993;28;20471;-57
2022/11/30 17:18:54;;;;;;;19.85;11.18;;;;;;;10.32;77.66;100992.38;10402577;28;20061;-59
2022/11/30 17:23:56;;;;;;;23.70;10.18;;;;;;;10.29;77.10;100992.66;10407550;28;20038;-59
2022/11/30 17:28:58;;;;;;;20.10;10.07;;;;;;;10.23;77.60;100987.06;10411897;28;20103;-57
2022/11/30 17:34:00;;;;;;;21.25;10.35;;;;;;;10.24;77.28;100997.66;10424885;28;20445;-59
2022/11/30 17:39:06;;;;;;;20.25;11.52;;;;;;;10.24;77.32;100994.16;10418380;28;20140;-58
2022/11/30 17:44:08;;;;;;;26.55;12.57;;;;;;;10.08;77.71;100994.88;10407352;28;20100;-61
2022/11/30 17:49:10;;;;;;;22.63;12.35;;;;;;;10.00;77.79;101000.19;10412447;28;20133;-59
2022/11/30 17:54:11;;;;;;;18.27;10.70;;;;;;;9.92;77.90;101000.97;10416258;28;20081;-58
2022/11/30 17:59:13;;;;;;;19.77;11.55;;;;;;;9.90;78.16;101011.84;10418496;28;20524;-61
2022/11/30 18:04:14;;;;;;;26.63;13.13;;;;;;;9.90;77.82;101016.41;10415284;28;20140;-58
2022/11/30 18:09:16;;;;;;;26.30;12.93;;;;;;;9.91;77.84;101010.00;10416587;28;20053;-61
2022/11/30 18:14:17;;;;;;;24.77;12.07;;;;;;;9.84;77.93;101019.69;10399574;28;20095;-59
2022/11/30 18:19:20;;;;;;;24.60;11.65;;;;;;;9.73;78.33;101018.94;10397708;28;20149;-59
2022/11/30 18:24:22;;;;;;;23.27;11.68;;;;;;;9.65;78.45;101015.31;10411309;28;20770;-59
2022/11/30 18:29:26;;;;;;;26.42;14.13;;;;;;;9.68;78.14;101018.56;10420716;28;20064;-59
2022/11/30 18:34:27;;;;;;;25.13;12.85;;;;;;;9.69;78.36;101032.81;10422009;28;20074;-59
2022/11/30 18:39:29;;;;;;;24.52;13.95;;;;;;;9.71;78.11;101030.81;10418762;28;20124;-58
2022/11/30 18:44:30;;;;;;;25.88;13.38;;;;;;;9.77;78.27;101035.56;10415033;28;20076;-59
2022/11/30 18:49:31;;;;;;;26.70;13.23;;;;;;;9.83;77.91;101026.88;10419085;28;20435;-58
2022/11/30 18:54:33;;;;;;;25.25;12.63;;;;;;;9.71;78.24;101031.66;10413991;28;20069;-58
2022/11/30 18:59:34;;;;;;;21.20;10.60;;;;;;;9.70;78.32;101032.66;10427562;28;20128;-59
2022/11/30 19:04:36;;;;;;;29.48;13.50;;;;;;;9.66;78.32;101036.66;10421478;28;20065;-58
2022/11/30 19:09:37;;;;;;;29.73;13.65;;;;;;;9.81;78.12;101033.41;10426881;28;20049;-58
2022/11/30 19:14:41;;;;;;;31.67;13.45;;;;;;;9.90;77.76;101030.66;10408244;28;20052;-56
2022/11/30 19:19:43;;;;;;;32.85;14.68;;;;;;;9.85;78.25;101042.84;10410987;28;20103;-58
2022/11/30 19:24:44;;;;;;;31.13;13.88;;;;;;;9.91;77.88;101042.22;10425303;28;20140;-59
2022/11/30 19:29:46;;;;;;;29.40;14.23;;;;;;;9.91;77.93;101050.28;10413009;28;20041;-60
2022/11/30 19:34:48;;;;;;;22.08;12.05;;;;;;;9.99;77.72;101045.00;10391058;28;20107;-57
2022/11/30 19:39:50;;;;;;;26.48;12.48;;;;;;;10.09;77.45;101043.06;10416410;28;20107;-58
2022/11/30 19:44:51;;;;;;;38.22;20.85;;;;;;;10.05;77.47;101047.06;10415954;28;20128;-61
2022/11/30 19:49:52;;;;;;;28.98;15.38;;;;;;;9.98;77.85;101045.16;10424203;28;20128;-57
2022/11/30 19:54:54;;;;;;;22.33;12.70;;;;;;;9.91;77.88;101048.47;10411323;28;20056;-57
2022/11/30 19:59:55;;;;;;;31.30;13.63;;;;;;;10.00;77.83;101054.75;10416566;28;20137;-61
2022/11/30 20:04:56;;;;;;;28.27;14.00;;;;;;;10.06;77.57;101050.59;10415841;28;20064;-58
2022/11/30 20:09:58;;;;;;;26.17;13.75;;;;;;;10.11;77.51;101061.69;10415312;28;20144;-63
2022/11/30 20:14:59;;;;;;;27.23;13.32;;;;;;;10.18;77.26;101065.47;10410917;28;20472;-59
2022/11/30 20:20:01;;;;;;;22.40;12.80;;;;;;;10.23;77.19;101063.16;10411752;28;21700;-59
2022/11/30 20:25:02;;;;;;;26.67;11.50;;;;;;;10.28;77.33;101054.63;10403969;28;20044;-58
2022/11/30 20:30:06;;;;;;;20.52;10.02;;;;;;;10.32;77.23;101066.78;10400288;28;20475;-58
2022/11/30 20:35:09;;;;;;;25.50;12.23;;;;;;;10.37;77.06;101067.16;10406687;28;20142;-60
2022/11/30 20:40:10;;;;;;;30.75;15.40;;;;;;;10.37;77.33;101064.47;10399954;28;20076;-61
2022/11/30 20:45:12;;;;;;;34.13;17.55;;;;;;;10.40;77.36;101068.69;10401881;28;20080;-60
2022/11/30 20:50:13;;;;;;;39.42;22.50;;;;;;;10.42;77.21;101066.69;10398889;28;20084;-60
2022/11/30 20:55:15;;;;;;;32.55;16.50;;;;;;;10.42;77.30;101062.16;10408809;28;20499;-60
2022/11/30 21:00:17;;;;;;;22.73;13.60;;;;;;;10.42;77.28;101066.69;10422830;28;20144;-58
2022/11/30 21:05:18;;;;;;;21.08;12.55;;;;;;;10.42;77.34;101077.44;10416264;28;20091;-61
2022/11/30 21:10:19;;;;;;;23.05;13.02;;;;;;;10.40;77.36;101074.06;10407101;28;20555;-59
2022/11/30 21:15:21;;;;;;;22.75;11.82;;;;;;;10.39;77.50;101070.53;10412853;28;20523;-59
2022/11/30 21:20:22;;;;;;;31.08;11.93;;;;;;;10.37;77.30;101064.47;10405381;28;20092;-58
2022/11/30 21:25:23;;;;;;;19.65;11.30;;;;;;;10.38;77.42;101068.00;10416047;28;20142;-58
2022/11/30 21:30:25;;;;;;;21.20;13.27;;;;;;;10.41;77.11;101073.91;10407746;28;20124;-58
2022/11/30 21:35:26;;;;;;;21.83;12.35;;;;;;;10.41;77.46;101071.22;10419783;28;20081;-58
2022/11/30 21:40:28;;;;;;;21.27;11.80;;;;;;;10.42;76.95;101072.91;10399830;28;20152;-60
2022/11/30 21:45:29;;;;;;;18.23;10.45;;;;;;;10.41;77.19;101073.91;10411686;28;20073;-59
2022/11/30 21:50:30;;;;;;;20.27;12.07;;;;;;;10.42;77.06;101070.22;10397931;28;20052;-62
2022/11/30 21:55:32;;;;;;;18.52;11.13;;;;;;;10.44;77.31;101072.75;10415504;28;22406;-59
2022/11/30 22:00:34;;;;;;;16.73;10.43;;;;;;;10.45;77.10;101064.53;10423062;28;20627;-58
2022/11/30 22:05:35;;;;;;;15.85;9.32;;;;;;;10.45;77.18;101061.84;10414604;28;20136;-59
2022/11/30 22:10:36;;;;;;;23.40;13.48;;;;;;;10.46;77.20;101063.50;10417781;28;20061;-61
2022/11/30 22:15:38;;;;;;;42.97;21.98;;;;;;;10.44;77.00;101068.19;10419425;28;20088;-61
2022/11/30 22:20:39;;;;;;;33.80;14.55;;;;;;;10.43;77.45;101073.75;10416700;28;20044;-60
2022/11/30 22:25:41;;;;;;;25.52;11.60;;;;;;;10.43;77.24;101068.38;10419447;28;20057;-61
2022/11/30 22:30:43;;;;;;;17.30;10.07;;;;;;;10.44;77.20;101078.13;10392506;28;20049;-60
2022/11/30 22:35:44;;;;;;;16.55;10.20;;;;;;;10.42;77.21;101070.22;10407204;28;20045;-61
2022/11/30 22:40:46;;;;;;;20.90;10.43;;;;;;;10.43;77.21;101071.91;10417489;28;20415;-61
2022/11/30 22:45:47;;;;;;;22.30;10.65;;;;;;;10.46;77.05;101071.56;10420846;28;20058;-60
2022/11/30 22:50:48;;;;;;;20.13;9.35;;;;;;;10.45;76.96;101075.28;10416713;28;20076;-59
2022/11/30 22:55:50;;;;;;;19.08;10.95;;;;;;;10.43;77.17;101069.22;10408167;28;20459;-59